createdAt,value
2017-02-12T00:00:59.568Z,1007.83
2017-02-12T00:02:09.536Z,1007.81
2017-02-12T00:03:20.309Z,1007.85
2017-02-12T00:04:30.703Z,1007.83
2017-02-12T00:05:41.102Z,1007.86
2017-02-12T00:06:51.470Z,1007.9
2017-02-12T00:08:01.431Z,1007.93
2017-02-12T00:09:12.167Z,1007.9
2017-02-12T00:10:22.523Z,1007.97
2017-02-12T00:11:33.273Z,1008.03
2017-02-12T00:12:43.638Z,1007.99
2017-02-12T00:13:54.391Z,1008.01
2017-02-12T00:15:05.143Z,1008.02
2017-02-12T00:16:15.487Z,1008.04
2017-02-12T00:17:26.289Z,1008.03
2017-02-12T00:18:37.024Z,1008.05
2017-02-12T00:19:47.787Z,1008.07
2017-02-12T00:20:57.754Z,1008.07
2017-02-12T00:22:07.715Z,1008.07
2017-02-12T00:23:18.085Z,1008.11
2017-02-12T00:24:28.465Z,1008.1
2017-02-12T00:25:38.829Z,1008.12
2017-02-12T00:26:48.819Z,1008.16
2017-02-12T00:27:59.564Z,1008.18
2017-02-12T00:29:10.381Z,1008.16
2017-02-12T00:30:20.751Z,1008.12
2017-02-12T00:31:31.101Z,1008.18
2017-02-12T00:32:41.848Z,1008.18
2017-02-12T00:33:52.622Z,1008.21
2017-02-12T00:35:03.366Z,1008.19
2017-02-12T00:36:14.137Z,1008.26
2017-02-12T00:37:24.890Z,1008.21
2017-02-12T00:38:35.251Z,1008.18
2017-02-12T00:39:45.203Z,1008.19
2017-02-12T00:40:55.939Z,1008.21
2017-02-12T00:42:06.325Z,1008.3
2017-02-12T00:43:17.065Z,1008.27
2017-02-12T00:44:27.814Z,1008.3
2017-02-12T00:45:38.576Z,1008.31
2017-02-12T00:46:49.381Z,1008.32
2017-02-12T00:47:59.777Z,1008.34
2017-02-12T00:49:10.558Z,1008.34
2017-02-12T00:50:20.516Z,1008.33
2017-02-12T00:51:31.259Z,1008.34
2017-02-12T00:52:42.023Z,1008.35
2017-02-12T00:53:52.814Z,1008.31
2017-02-12T00:55:03.177Z,1008.3
2017-02-12T00:56:13.557Z,1008.28
2017-02-12T00:57:24.300Z,1008.25
2017-02-12T00:58:34.272Z,1008.3
2017-02-12T00:59:44.641Z,1008.28
2017-02-12T01:00:55.443Z,1008.3
2017-02-12T01:02:05.791Z,1008.32
2017-02-12T01:03:16.533Z,1008.33
2017-02-12T01:04:26.932Z,1008.25
2017-02-12T01:05:37.281Z,1008.32
2017-02-12T01:06:48.024Z,1008.31
2017-02-12T01:07:58.755Z,1008.29
2017-02-12T01:09:09.505Z,1008.33
2017-02-12T01:10:20.249Z,1008.37
2017-02-12T01:11:30.611Z,1008.34
2017-02-12T01:12:41.358Z,1008.36
2017-02-12T01:13:51.702Z,1008.38
2017-02-12T01:15:02.054Z,1008.38
2017-02-12T01:16:12.403Z,1008.36
2017-02-12T01:17:23.178Z,1008.4
2017-02-12T01:18:33.130Z,1008.41
2017-02-12T01:19:43.502Z,1008.37
2017-02-12T01:20:53.847Z,1008.41
2017-02-12T01:22:04.594Z,1008.4
2017-02-12T01:23:15.333Z,1008.34
2017-02-12T01:24:26.074Z,1008.38
2017-02-12T01:25:36.825Z,1008.32
2017-02-12T01:26:47.572Z,1008.35
2017-02-12T01:27:58.327Z,1008.36
2017-02-12T01:29:09.066Z,1008.38
2017-02-12T01:30:19.019Z,1008.37
2017-02-12T01:31:28.582Z,1008.31
2017-02-12T01:32:38.936Z,1008.33
2017-02-12T01:33:49.681Z,1008.32
2017-02-12T01:34:59.243Z,1008.33
2017-02-12T01:36:09.986Z,1008.32
2017-02-12T01:37:20.332Z,1008.3
2017-02-12T01:38:29.905Z,1008.33
2017-02-12T01:39:40.758Z,1008.29
2017-02-12T01:40:50.705Z,1008.33
2017-02-12T01:42:01.060Z,1008.3
2017-02-12T01:43:11.411Z,1008.32
2017-02-12T01:44:22.153Z,1008.34
2017-02-12T01:45:32.490Z,1008.3
2017-02-12T01:46:42.832Z,1008.36
2017-02-12T01:47:53.213Z,1008.33
2017-02-12T01:49:03.955Z,1008.34
2017-02-12T01:50:13.915Z,1008.28
2017-02-12T01:51:24.262Z,1008.29
2017-02-12T01:52:34.615Z,1008.29
2017-02-12T01:53:44.962Z,1008.29
2017-02-12T01:54:55.328Z,1008.3
2017-02-12T01:56:06.070Z,1008.31
2017-02-12T01:57:16.444Z,1008.33
2017-02-12T01:58:27.189Z,1008.33
2017-02-12T01:59:37.943Z,1008.33
2017-02-12T02:00:48.683Z,1008.33
2017-02-12T02:01:58.635Z,1008.31
2017-02-12T02:03:09.385Z,1008.31
2017-02-12T02:04:18.951Z,1008.33
2017-02-12T02:05:29.283Z,1008.34
2017-02-12T02:06:39.627Z,1008.34
2017-02-12T02:07:49.183Z,1008.39
2017-02-12T02:08:59.144Z,1008.41
2017-02-12T02:10:09.499Z,1008.38
2017-02-12T02:11:19.845Z,1008.37
2017-02-12T02:12:30.589Z,1008.27
2017-02-12T02:13:40.946Z,1008.31
2017-02-12T02:14:51.682Z,1008.35
2017-02-12T02:16:02.427Z,1008.36
2017-02-12T02:17:13.178Z,1008.38
2017-02-12T02:18:23.140Z,1008.32
2017-02-12T02:19:33.090Z,1008.39
2017-02-12T02:20:43.432Z,1008.34
2017-02-12T02:21:53.779Z,1008.44
2017-02-12T02:23:04.527Z,1008.42
2017-02-12T02:24:14.886Z,1008.46
2017-02-12T02:25:25.229Z,1008.44
2017-02-12T02:26:36.014Z,1008.4
2017-02-12T02:27:46.758Z,1008.44
2017-02-12T02:28:57.116Z,1008.41
2017-02-12T02:30:07.531Z,1008.44
2017-02-12T02:31:17.922Z,1008.43
2017-02-12T02:32:28.679Z,1008.45
2017-02-12T02:33:39.029Z,1008.41
2017-02-12T02:34:49.379Z,1008.46
2017-02-12T02:35:59.323Z,1008.43
2017-02-12T02:37:09.677Z,1008.42
2017-02-12T02:38:20.075Z,1008.43
2017-02-12T02:39:30.828Z,1008.42
2017-02-12T02:40:41.565Z,1008.43
2017-02-12T02:41:51.537Z,1008.45
2017-02-12T02:43:02.270Z,1008.48
2017-02-12T02:44:13.018Z,1008.52
2017-02-12T02:45:23.379Z,1008.53
2017-02-12T02:46:34.111Z,1008.64
2017-02-12T02:47:44.461Z,1008.61
2017-02-12T02:48:54.413Z,1008.62
2017-02-12T02:50:04.433Z,1008.66
2017-02-12T02:51:15.027Z,1008.65
2017-02-12T02:52:25.808Z,1008.7
2017-02-12T02:53:36.554Z,1008.63
2017-02-12T02:54:46.912Z,1008.6
2017-02-12T02:55:57.672Z,1008.62
2017-02-12T02:57:08.020Z,1008.65
2017-02-12T02:58:18.360Z,1008.66
2017-02-12T02:59:28.723Z,1008.68
2017-02-12T03:00:38.706Z,1008.7
2017-02-12T03:33:08.038Z,1008.95
2017-02-12T03:34:18.773Z,1008.91
2017-02-12T03:35:29.106Z,1008.98
2017-02-12T03:36:39.829Z,1008.96
2017-02-12T03:37:49.386Z,1008.98
2017-02-12T03:38:59.738Z,1008.92
2017-02-12T03:40:10.474Z,1008.97
2017-02-12T03:41:20.832Z,1009.02
2017-02-12T03:42:31.171Z,1009.01
2017-02-12T03:43:41.909Z,1008.95
2017-02-12T03:44:51.870Z,1009.01
2017-02-12T03:46:02.627Z,1009.04
2017-02-12T03:47:13.362Z,1009.02
2017-02-12T03:48:23.322Z,1009.04
2017-02-12T03:49:33.278Z,1009.05
2017-02-12T03:50:44.015Z,1009.03
2017-02-12T03:51:54.370Z,1009.03
2017-02-12T03:53:05.117Z,1009.03
2017-02-12T03:54:15.855Z,1009.03
2017-02-12T03:55:26.215Z,1009.07
2017-02-12T03:56:36.948Z,1009.14
2017-02-12T03:57:47.695Z,1009.14
2017-02-12T03:58:58.437Z,1009.13
2017-02-12T04:00:08.397Z,1009.1
2017-02-12T04:01:18.359Z,1009.14
2017-02-12T04:02:28.319Z,1009.13
2017-02-12T04:03:38.876Z,1009.1
2017-02-12T04:04:49.619Z,1009.09
2017-02-12T04:06:00.367Z,1009.11
2017-02-12T04:07:10.708Z,1009.09
2017-02-12T04:08:21.120Z,1009.13
2017-02-12T04:09:31.869Z,1009.14
2017-02-12T04:10:42.209Z,1009.16
2017-02-12T04:11:52.964Z,1009.14
2017-02-12T04:13:03.702Z,1009.15
2017-02-12T04:14:14.484Z,1009.12
2017-02-12T04:15:24.892Z,1009.18
2017-02-12T04:16:35.232Z,1009.18
2017-02-12T04:17:45.985Z,1009.21
2017-02-12T04:18:55.941Z,1009.19
2017-02-12T04:20:06.697Z,1009.18
2017-02-12T04:21:17.043Z,1009.22
2017-02-12T04:22:28.036Z,1009.23
2017-02-12T04:23:38.392Z,1009.25
2017-02-12T04:24:49.144Z,1009.28
2017-02-12T04:25:59.509Z,1009.29
2017-02-12T04:27:09.937Z,1009.3
2017-02-12T04:28:20.283Z,1009.29
2017-02-12T04:29:30.642Z,1009.31
2017-02-12T04:30:40.608Z,1009.3
2017-02-12T04:31:51.362Z,1009.29
2017-02-12T04:33:02.094Z,1009.24
2017-02-12T04:34:12.439Z,1009.25
2017-02-12T04:35:22.799Z,1009.27
2017-02-12T04:36:33.555Z,1009.23
2017-02-12T04:37:43.895Z,1009.25
2017-02-12T04:38:53.068Z,1009.25
2017-02-12T04:40:03.026Z,1009.14
2017-02-12T04:41:13.378Z,1009.21
2017-02-12T04:42:24.129Z,1009.2
2017-02-12T04:43:34.883Z,1009.28
2017-02-12T04:44:45.624Z,1009.28
2017-02-12T04:45:56.421Z,1009.26
2017-02-12T04:47:06.776Z,1009.31
2017-02-12T04:48:17.524Z,1009.3
2017-02-12T04:49:28.269Z,1009.27
2017-02-12T04:50:39.018Z,1009.28
2017-02-12T04:51:49.380Z,1009.25
2017-02-12T04:52:59.338Z,1009.3
2017-02-12T04:54:10.075Z,1009.31
2017-02-12T04:55:20.814Z,1009.3
2017-02-12T04:56:30.389Z,1009.35
2017-02-12T04:57:40.734Z,1009.46
2017-02-12T04:58:51.073Z,1009.38
2017-02-12T05:00:00.649Z,1009.52
2017-02-12T05:01:11.002Z,1009.48
2017-02-12T05:02:20.558Z,1009.5
2017-02-12T05:03:31.292Z,1009.53
2017-02-12T05:04:41.236Z,1009.58
2017-02-12T05:05:51.575Z,1009.54
2017-02-12T05:07:02.366Z,1009.51
2017-02-12T05:08:12.716Z,1009.56
2017-02-12T05:09:23.054Z,1009.57
2017-02-12T05:10:33.802Z,1009.6
2017-02-12T05:11:44.168Z,1009.6
2017-02-12T05:12:54.519Z,1009.63
2017-02-12T05:14:04.879Z,1009.61
2017-02-12T05:15:15.636Z,1009.62
2017-02-12T05:16:25.585Z,1009.73
2017-02-12T05:17:36.331Z,1009.71
2017-02-12T05:18:46.688Z,1009.79
2017-02-12T05:19:56.255Z,1009.7
2017-02-12T05:21:07.015Z,1009.79
2017-02-12T05:22:17.362Z,1009.8
2017-02-12T05:23:28.096Z,1009.81
2017-02-12T05:24:38.901Z,1009.82
2017-02-12T05:25:49.248Z,1009.84
2017-02-12T05:26:59.987Z,1009.85
2017-02-12T05:28:10.342Z,1009.87
2017-02-12T05:29:20.694Z,1009.93
2017-02-12T05:30:31.040Z,1009.89
2017-02-12T05:31:41.397Z,1009.94
2017-02-12T05:32:51.745Z,1009.91
2017-02-12T05:34:02.130Z,1009.95
2017-02-12T05:35:12.881Z,1009.94
2017-02-12T05:36:23.636Z,1010
2017-02-12T05:37:33.985Z,1010.02
2017-02-12T05:38:44.727Z,1010.08
2017-02-12T05:39:55.074Z,1010.09
2017-02-12T05:41:04.646Z,1010.1
2017-02-12T05:42:15.447Z,1010.12
2017-02-12T05:43:25.800Z,1010.13
2017-02-12T05:44:36.536Z,1010.16
2017-02-12T05:45:46.882Z,1010.17
2017-02-12T05:46:56.458Z,1010.14
2017-02-12T05:48:06.850Z,1010.18
2017-02-12T05:49:17.189Z,1010.2
2017-02-12T05:50:27.930Z,1010.28
2017-02-12T05:51:38.279Z,1010.29
2017-02-12T05:52:48.627Z,1010.3
2017-02-12T05:53:59.358Z,1010.28
2017-02-12T05:55:09.702Z,1010.32
2017-02-12T05:56:20.043Z,1010.39
2017-02-12T05:57:30.410Z,1010.41
2017-02-12T05:58:41.162Z,1010.38
2017-02-12T05:59:51.951Z,1010.44
2017-02-12T06:01:02.307Z,1010.45
2017-02-12T06:02:12.652Z,1010.48
2017-02-12T06:03:23.390Z,1010.46
2017-02-12T06:04:34.140Z,1010.46
2017-02-12T06:05:44.113Z,1010.47
2017-02-12T06:06:54.467Z,1010.44
2017-02-12T06:08:04.839Z,1010.46
2017-02-12T06:09:15.589Z,1010.5
2017-02-12T06:10:26.325Z,1010.49
2017-02-12T06:11:36.321Z,1010.53
2017-02-12T06:12:46.666Z,1010.55
2017-02-12T06:13:56.999Z,1010.58
2017-02-12T06:15:07.744Z,1010.63
2017-02-12T06:16:18.311Z,1010.69
2017-02-12T06:17:28.655Z,1010.65
2017-02-12T06:18:38.216Z,1010.7
2017-02-12T06:19:48.971Z,1010.67
2017-02-12T06:20:59.307Z,1010.66
2017-02-12T06:22:08.877Z,1010.65
2017-02-12T06:23:19.617Z,1010.66
2017-02-12T06:24:29.970Z,1010.66
2017-02-12T06:25:40.719Z,1010.77
2017-02-12T06:26:51.469Z,1010.68
2017-02-12T06:28:01.839Z,1010.71
2017-02-12T06:29:12.799Z,1010.72
2017-02-12T06:30:22.745Z,1010.68
2017-02-12T06:31:32.690Z,1010.7
2017-02-12T06:32:43.067Z,1010.69
2017-02-12T06:33:53.413Z,1010.69
2017-02-12T06:35:04.195Z,1010.69
2017-02-12T06:36:14.932Z,1010.73
2017-02-12T06:37:25.676Z,1010.75
2017-02-12T06:38:36.421Z,1010.75
2017-02-12T06:39:47.166Z,1010.76
2017-02-12T06:40:57.513Z,1010.8
2017-02-12T06:42:08.286Z,1010.78
2017-02-12T06:43:19.020Z,1010.78
2017-02-12T06:44:29.369Z,1010.77
2017-02-12T06:45:39.716Z,1010.83
2017-02-12T06:46:50.067Z,1010.79
2017-02-12T06:48:00.029Z,1010.86
2017-02-12T06:49:10.781Z,1010.85
2017-02-12T06:50:21.177Z,1010.85
2017-02-12T06:51:31.927Z,1010.85
2017-02-12T06:52:42.729Z,1010.86
2017-02-12T06:53:52.686Z,1010.85
2017-02-12T06:55:03.436Z,1010.87
2017-02-12T06:56:13.391Z,1010.87
2017-02-12T06:57:23.747Z,1010.89
2017-02-12T06:58:34.500Z,1010.87
2017-02-12T06:59:44.849Z,1010.92
2017-02-12T07:00:55.597Z,1010.93
2017-02-12T07:02:05.940Z,1010.9
2017-02-12T07:03:16.677Z,1010.9
2017-02-12T07:04:27.427Z,1010.91
2017-02-12T07:05:38.168Z,1010.92
2017-02-12T07:06:48.912Z,1010.92
2017-02-12T07:07:59.474Z,1010.94
2017-02-12T07:09:09.844Z,1010.97
2017-02-12T07:10:20.581Z,1010.99
2017-02-12T07:11:30.548Z,1010.99
2017-02-12T07:12:40.895Z,1011.03
2017-02-12T07:13:51.656Z,1011.04
2017-02-12T07:15:02.404Z,1011.07
2017-02-12T07:16:12.741Z,1011.08
2017-02-12T07:17:23.082Z,1011.06
2017-02-12T07:18:33.054Z,1011.13
2017-02-12T07:19:43.804Z,1011.11
2017-02-12T07:20:54.553Z,1011.13
2017-02-12T07:22:04.890Z,1011.16
2017-02-12T07:23:15.626Z,1011.17
2017-02-12T07:24:25.980Z,1011.22
2017-02-12T07:25:36.320Z,1011.2
2017-02-12T07:26:47.051Z,1011.23
2017-02-12T07:27:57.397Z,1011.28
2017-02-12T07:29:07.353Z,1011.27
2017-02-12T07:30:18.109Z,1011.31
2017-02-12T07:31:28.862Z,1011.32
2017-02-12T07:32:39.609Z,1011.34
2017-02-12T07:33:50.396Z,1011.42
2017-02-12T07:35:01.138Z,1011.37
2017-02-12T07:36:11.889Z,1011.39
2017-02-12T07:37:22.259Z,1011.45
2017-02-12T07:38:32.613Z,1011.44
2017-02-12T07:39:42.570Z,1011.45
2017-02-12T07:40:52.926Z,1011.42
2017-02-12T07:42:03.688Z,1011.4
2017-02-12T07:43:14.115Z,1011.45
2017-02-12T07:44:24.891Z,1011.45
2017-02-12T07:45:35.647Z,1011.43
2017-02-12T07:46:46.003Z,1011.43
2017-02-12T07:47:56.376Z,1011.49
2017-02-12T07:49:07.123Z,1011.5
2017-02-12T07:50:17.481Z,1011.53
2017-02-12T07:51:27.839Z,1011.48
2017-02-12T07:52:38.575Z,1011.48
2017-02-12T07:53:49.314Z,1011.45
2017-02-12T07:54:58.468Z,1011.46
2017-02-12T07:56:08.819Z,1011.45
2017-02-12T07:57:19.217Z,1011.49
2017-02-12T07:58:28.778Z,1011.45
2017-02-12T07:59:39.143Z,1011.5
2017-02-12T08:00:49.885Z,1011.44
2017-02-12T08:02:00.633Z,1011.5
2017-02-12T08:03:10.985Z,1011.43
2017-02-12T08:04:21.736Z,1011.44
2017-02-12T08:05:32.144Z,1011.43
2017-02-12T08:06:42.899Z,1011.41
2017-02-12T08:07:53.259Z,1011.42
2017-02-12T08:09:03.671Z,1011.47
2017-02-12T08:10:14.405Z,1011.44
2017-02-12T08:11:24.757Z,1011.48
2017-02-12T08:12:35.108Z,1011.46
2017-02-12T08:13:45.846Z,1011.46
2017-02-12T08:14:55.802Z,1011.51
2017-02-12T08:16:05.764Z,1011.47
2017-02-12T08:17:15.736Z,1011.49
2017-02-12T08:18:26.101Z,1011.51
2017-02-12T08:19:36.459Z,1011.53
2017-02-12T08:20:46.029Z,1011.58
2017-02-12T08:21:56.375Z,1011.59
2017-02-12T08:23:06.736Z,1011.59
2017-02-12T08:24:17.090Z,1011.62
2017-02-12T08:25:27.484Z,1011.61
2017-02-12T08:26:38.235Z,1011.66
2017-02-12T08:27:48.990Z,1011.63
2017-02-12T08:28:59.732Z,1011.64
2017-02-12T08:30:09.693Z,1011.65
2017-02-12T08:31:20.433Z,1011.7
2017-02-12T08:32:30.796Z,1011.7
2017-02-12T08:33:41.549Z,1011.7
2017-02-12T08:34:51.937Z,1011.7
2017-02-12T08:36:01.498Z,1011.68
2017-02-12T08:37:11.849Z,1011.69
2017-02-12T08:38:21.809Z,1011.75
2017-02-12T08:39:32.543Z,1011.73
2017-02-12T08:40:42.916Z,1011.74
2017-02-12T08:41:53.653Z,1011.7
2017-02-12T08:43:04.400Z,1011.72
2017-02-12T08:44:14.812Z,1011.78
2017-02-12T08:45:25.556Z,1011.8
2017-02-12T08:46:35.887Z,1011.74
2017-02-12T08:47:46.239Z,1011.76
2017-02-12T08:48:56.607Z,1011.81
2017-02-12T08:50:07.024Z,1011.81
2017-02-12T08:51:17.774Z,1011.83
2017-02-12T08:52:28.521Z,1011.85
2017-02-12T08:53:39.275Z,1011.87
2017-02-12T08:54:49.626Z,1011.88
2017-02-12T08:56:00.397Z,1011.9
2017-02-12T08:57:09.968Z,1011.92
2017-02-12T08:58:20.316Z,1011.93
2017-02-12T08:59:30.280Z,1012
2017-02-12T09:00:41.023Z,1012.01
2017-02-12T09:01:51.067Z,1011.97
2017-02-12T09:03:01.019Z,1011.95
2017-02-12T09:04:11.386Z,1011.95
2017-02-12T09:05:21.737Z,1011.94
2017-02-12T09:06:32.098Z,1011.94
2017-02-12T09:07:42.504Z,1011.97
2017-02-12T09:08:52.870Z,1011.95
2017-02-12T09:10:03.243Z,1011.9
2017-02-12T09:11:13.205Z,1011.89
2017-02-12T09:12:23.946Z,1011.91
2017-02-12T09:13:34.703Z,1011.91
2017-02-12T09:14:45.062Z,1011.93
2017-02-12T09:15:55.026Z,1011.9
2017-02-12T09:17:04.984Z,1011.96
2017-02-12T09:18:15.335Z,1011.94
2017-02-12T09:19:25.723Z,1011.93
2017-02-12T09:20:36.131Z,1011.94
2017-02-12T09:21:46.870Z,1011.97
2017-02-12T09:22:56.439Z,1011.99
2017-02-12T09:24:07.207Z,1011.98
2017-02-12T09:25:17.974Z,1012.02
2017-02-12T09:26:27.950Z,1012.04
2017-02-12T09:27:37.923Z,1012.01
2017-02-12T09:28:48.294Z,1012.01
2017-02-12T09:29:58.251Z,1012.07
2017-02-12T09:31:08.598Z,1012.06
2017-02-12T09:32:19.357Z,1012.09
2017-02-12T09:33:28.926Z,1012.07
2017-02-12T09:34:39.282Z,1012.03
2017-02-12T09:35:50.038Z,1012.04
2017-02-12T09:37:00.445Z,1012.04
2017-02-12T09:38:10.807Z,1012.03
2017-02-12T09:39:20.369Z,1012
2017-02-12T09:40:31.107Z,1012.05
2017-02-12T09:41:41.452Z,1012.08
2017-02-12T09:42:52.198Z,1012.1
2017-02-12T09:44:02.996Z,1012.13
2017-02-12T09:45:13.364Z,1012.15
2017-02-12T09:46:24.116Z,1012.14
2017-02-12T09:47:34.856Z,1012.19
2017-02-12T09:48:45.213Z,1012.25
2017-02-12T09:49:55.589Z,1012.23
2017-02-12T09:51:06.345Z,1012.26
2017-02-12T09:52:16.709Z,1012.24
2017-02-12T09:53:26.288Z,1012.31
2017-02-12T09:54:37.067Z,1012.24
2017-02-12T09:55:47.820Z,1012.31
2017-02-12T09:56:58.173Z,1012.28
2017-02-12T09:58:08.535Z,1012.33
2017-02-12T09:59:18.893Z,1012.3
2017-02-12T10:00:28.968Z,1012.33
2017-02-12T10:01:39.300Z,1012.31
2017-02-12T10:02:49.630Z,1012.34
2017-02-12T10:03:59.985Z,1012.33
2017-02-12T10:05:10.728Z,1012.32
2017-02-12T10:06:20.284Z,1012.34
2017-02-12T10:07:30.244Z,1012.34
2017-02-12T10:08:41.049Z,1012.35
2017-02-12T10:09:51.415Z,1012.37
2017-02-12T10:11:02.161Z,1012.36
2017-02-12T10:12:12.509Z,1012.36
2017-02-12T10:13:22.867Z,1012.42
2017-02-12T10:14:33.618Z,1012.42
2017-02-12T10:15:43.978Z,1012.4
2017-02-12T10:16:53.158Z,1012.42
2017-02-12T10:18:03.519Z,1012.45
2017-02-12T10:19:14.268Z,1012.41
2017-02-12T10:20:25.020Z,1012.38
2017-02-12T10:21:34.991Z,1012.43
2017-02-12T10:29:05.973Z,1012.43
2017-02-12T10:30:16.323Z,1012.44
2017-02-12T10:33:58.302Z,1012.43
2017-02-12T10:35:08.664Z,1012.43
2017-02-12T10:36:19.416Z,1012.45
2017-02-12T10:37:29.376Z,1012.37
2017-02-12T10:38:40.115Z,1012.41
2017-02-12T10:39:50.861Z,1012.39
2017-02-12T10:41:00.829Z,1012.42
2017-02-12T10:42:11.585Z,1012.41
2017-02-12T10:43:22.342Z,1012.41
2017-02-12T10:44:32.303Z,1012.36
2017-02-12T10:45:42.654Z,1012.39
2017-02-12T10:46:52.611Z,1012.35
2017-02-12T10:48:03.364Z,1012.35
2017-02-12T10:49:14.119Z,1012.38
2017-02-12T10:50:24.866Z,1012.35
2017-02-12T10:51:35.293Z,1012.36
2017-02-12T10:52:46.039Z,1012.39
2017-02-12T10:53:56.796Z,1012.41
2017-02-12T10:55:07.538Z,1012.41
2017-02-12T10:56:17.505Z,1012.44
2017-02-12T10:57:28.287Z,1012.38
2017-02-12T10:58:39.043Z,1012.42
2017-02-12T10:59:49.001Z,1012.46
2017-02-12T11:00:59.745Z,1012.5
2017-02-12T11:02:10.487Z,1012.48
2017-02-12T11:03:20.442Z,1012.52
2017-02-12T11:04:31.207Z,1012.42
2017-02-12T11:05:41.954Z,1012.43
2017-02-12T11:06:51.911Z,1012.42
2017-02-12T11:08:02.659Z,1012.44
2017-02-12T11:09:13.020Z,1012.42
2017-02-12T11:10:23.381Z,1012.43
2017-02-12T11:11:33.344Z,1012.42
2017-02-12T11:12:43.312Z,1012.43
2017-02-12T11:13:53.673Z,1012.45
2017-02-12T11:15:04.028Z,1012.5
2017-02-12T11:16:14.784Z,1012.54
2017-02-12T11:17:25.148Z,1012.5
2017-02-12T11:18:35.893Z,1012.47
2017-02-12T11:19:46.650Z,1012.54
2017-02-12T11:20:57.390Z,1012.46
2017-02-12T11:22:07.749Z,1012.55
2017-02-12T11:23:18.546Z,1012.54
2017-02-12T11:24:29.311Z,1012.54
2017-02-12T11:25:39.666Z,1012.56
2017-02-12T11:26:50.421Z,1012.57
2017-02-12T11:28:01.174Z,1012.6
2017-02-12T11:29:11.925Z,1012.62
2017-02-12T11:30:22.307Z,1012.6
2017-02-12T11:31:33.053Z,1012.64
2017-02-12T11:32:43.845Z,1012.6
2017-02-12T11:33:54.594Z,1012.59
2017-02-12T11:35:04.938Z,1012.64
2017-02-12T11:36:15.300Z,1012.6
2017-02-12T11:37:25.279Z,1012.59
2017-02-12T11:38:36.022Z,1012.63
2017-02-12T11:39:46.780Z,1012.66
2017-02-12T11:40:56.741Z,1012.59
2017-02-12T11:42:06.709Z,1012.63
2017-02-12T11:43:17.465Z,1012.65
2017-02-12T11:44:27.880Z,1012.64
2017-02-12T11:45:38.230Z,1012.56
2017-02-12T11:46:48.200Z,1012.61
2017-02-12T11:47:58.951Z,1012.59
2017-02-12T11:49:09.709Z,1012.58
2017-02-12T11:50:20.060Z,1012.59
2017-02-12T11:51:30.808Z,1012.6
2017-02-12T11:52:40.378Z,1012.54
2017-02-12T11:53:51.136Z,1012.55
2017-02-12T11:55:01.884Z,1012.5
2017-02-12T11:56:12.683Z,1012.53
2017-02-12T11:57:22.641Z,1012.55
2017-02-12T11:58:32.592Z,1012.57
2017-02-12T11:59:43.382Z,1012.51
2017-02-12T12:00:54.124Z,1012.53
2017-02-12T12:02:04.492Z,1012.49
2017-02-12T12:03:15.239Z,1012.46
2017-02-12T12:04:26.001Z,1012.46
2017-02-12T12:05:36.759Z,1012.49
2017-02-12T12:06:47.525Z,1012.52
2017-02-12T12:07:57.912Z,1012.51
2017-02-12T12:09:08.684Z,1012.46
2017-02-12T12:10:18.654Z,1012.49
2017-02-12T12:11:29.430Z,1012.48
2017-02-12T12:12:40.192Z,1012.51
2017-02-12T12:13:50.995Z,1012.44
2017-02-12T12:15:01.368Z,1012.52
2017-02-12T12:16:11.360Z,1012.47
2017-02-12T12:17:21.719Z,1012.53
2017-02-12T12:18:32.465Z,1012.49
2017-02-12T12:19:42.428Z,1012.53
2017-02-12T12:20:52.790Z,1012.5
2017-02-12T12:22:03.582Z,1012.5
2017-02-12T12:23:13.927Z,1012.51
2017-02-12T12:24:24.696Z,1012.47
2017-02-12T12:25:35.055Z,1012.51
2017-02-12T12:26:45.420Z,1012.48
2017-02-12T12:27:55.395Z,1012.53
2017-02-12T12:29:05.759Z,1012.53
2017-02-12T12:30:15.726Z,1012.51
2017-02-12T12:31:26.481Z,1012.54
2017-02-12T12:32:37.243Z,1012.52
2017-02-12T12:33:47.999Z,1012.52
2017-02-12T12:34:58.751Z,1012.53
2017-02-12T12:36:09.494Z,1012.56
2017-02-12T12:37:20.314Z,1012.52
2017-02-12T12:38:30.699Z,1012.51
2017-02-12T12:39:41.060Z,1012.54
2017-02-12T12:40:51.854Z,1012.55
2017-02-12T12:42:02.220Z,1012.52
2017-02-12T12:43:12.171Z,1012.49
2017-02-12T12:44:21.722Z,1012.49
2017-02-12T12:45:32.075Z,1012.49
2017-02-12T12:46:42.028Z,1012.47
2017-02-12T12:47:52.387Z,1012.45
2017-02-12T12:49:02.746Z,1012.42
2017-02-12T12:50:13.097Z,1012.37
2017-02-12T12:51:23.835Z,1012.41
2017-02-12T12:52:34.204Z,1012.42
2017-02-12T12:53:44.948Z,1012.37
2017-02-12T12:54:55.420Z,1012.39
2017-02-12T12:56:06.182Z,1012.41
2017-02-12T12:57:16.544Z,1012.35
2017-02-12T12:58:26.495Z,1012.36
2017-02-12T12:59:36.452Z,1012.36
2017-02-12T13:00:46.412Z,1012.38
2017-02-12T13:01:57.171Z,1012.39
2017-02-12T13:03:07.907Z,1012.41
2017-02-12T13:04:18.258Z,1012.43
2017-02-12T13:05:28.617Z,1012.45
2017-02-12T13:06:39.029Z,1012.47
2017-02-12T13:07:49.779Z,1012.48
2017-02-12T13:09:00.534Z,1012.45
2017-02-12T13:10:11.306Z,1012.45
2017-02-12T13:11:21.280Z,1012.46
2017-02-12T13:12:32.094Z,1012.48
2017-02-12T13:13:42.438Z,1012.46
2017-02-12T13:14:52.844Z,1012.41
2017-02-12T13:16:03.612Z,1012.47
2017-02-12T13:17:13.983Z,1012.39
2017-02-12T13:18:24.331Z,1012.44
2017-02-12T13:19:34.298Z,1012.4
2017-02-12T13:20:45.043Z,1012.44
2017-02-12T13:21:55.392Z,1012.44
2017-02-12T13:23:05.759Z,1012.48
2017-02-12T13:24:15.714Z,1012.42
2017-02-12T13:25:26.071Z,1012.41
2017-02-12T13:26:36.828Z,1012.45
2017-02-12T13:27:46.788Z,1012.44
2017-02-12T13:28:57.535Z,1012.49
2017-02-12T13:30:08.296Z,1012.53
2017-02-12T13:31:18.643Z,1012.55
2017-02-12T13:32:29.010Z,1012.57
2017-02-12T13:33:39.765Z,1012.53
2017-02-12T13:34:49.739Z,1012.57
2017-02-12T13:36:00.506Z,1012.57
2017-02-12T13:37:10.875Z,1012.59
2017-02-12T13:38:21.644Z,1012.62
2017-02-12T13:39:32.390Z,1012.59
2017-02-12T13:40:42.745Z,1012.59
2017-02-12T13:41:53.211Z,1012.62
2017-02-12T13:43:03.579Z,1012.62
2017-02-12T13:44:14.044Z,1012.61
2017-02-12T13:45:24.799Z,1012.65
2017-02-12T13:46:35.141Z,1012.64
2017-02-12T13:47:45.878Z,1012.64
2017-02-12T13:48:56.621Z,1012.65
2017-02-12T13:50:07.373Z,1012.71
2017-02-12T13:51:18.125Z,1012.65
2017-02-12T13:52:28.481Z,1012.7
2017-02-12T13:53:39.254Z,1012.67
2017-02-12T13:54:50.019Z,1012.71
2017-02-12T13:56:00.779Z,1012.71
2017-02-12T13:57:10.776Z,1012.71
2017-02-12T13:58:21.538Z,1012.74
2017-02-12T13:59:32.312Z,1012.68
2017-02-12T14:00:43.078Z,1012.7
2017-02-12T14:01:53.052Z,1012.66
2017-02-12T14:03:03.845Z,1012.66
2017-02-12T14:04:13.807Z,1012.64
2017-02-12T14:05:24.584Z,1012.67
2017-02-12T14:06:35.327Z,1012.68
2017-02-12T14:07:46.078Z,1012.7
2017-02-12T14:08:56.048Z,1012.68
2017-02-12T14:10:06.821Z,1012.66
2017-02-12T14:11:17.204Z,1012.64
2017-02-12T14:12:27.979Z,1012.69
2017-02-12T14:13:38.345Z,1012.69
2017-02-12T14:14:49.119Z,1012.7
2017-02-12T14:15:59.901Z,1012.69
2017-02-12T14:17:10.672Z,1012.7
2017-02-12T14:18:21.053Z,1012.71
2017-02-12T14:19:31.418Z,1012.74
2017-02-12T14:20:41.777Z,1012.74
2017-02-12T14:21:52.528Z,1012.75
2017-02-12T14:23:03.330Z,1012.72
2017-02-12T14:24:13.696Z,1012.75
2017-02-12T14:25:24.458Z,1012.71
2017-02-12T14:26:34.456Z,1012.72
2017-02-12T14:27:45.238Z,1012.71
2017-02-12T14:28:55.653Z,1012.7
2017-02-12T14:30:06.456Z,1012.71
2017-02-12T14:31:16.864Z,1012.75
2017-02-12T14:32:27.248Z,1012.69
2017-02-12T14:33:37.645Z,1012.72
2017-02-12T14:34:48.418Z,1012.71
2017-02-12T14:35:57.629Z,1012.7
2017-02-12T14:37:07.595Z,1012.61
2017-02-12T14:38:18.357Z,1012.63
2017-02-12T14:39:29.162Z,1012.64
2017-02-12T14:40:39.530Z,1012.63
2017-02-12T14:41:49.908Z,1012.59
2017-02-12T14:42:59.513Z,1012.59
2017-02-12T14:44:09.922Z,1012.58
2017-02-12T14:45:20.288Z,1012.6
2017-02-12T14:46:30.725Z,1012.61
2017-02-12T14:47:41.527Z,1012.56
2017-02-12T14:48:51.496Z,1012.59
2017-02-12T14:50:02.308Z,1012.57
2017-02-12T14:51:12.682Z,1012.6
2017-02-12T14:52:23.486Z,1012.61
2017-02-12T14:53:34.257Z,1012.62
2017-02-12T14:54:45.015Z,1012.65
2017-02-12T14:55:54.981Z,1012.65